Time;durP1;ratioP1;P1;durP2;ratioP2;P2;SDS_P1;SDS_P2;PMS_P1;PMS_P2;Temp;Humidity;BMP_temperature;BMP_pressure;BME280_temperature;BME280_humidity;BME280_pressure;Samples;Min_cycle;Max_cycle;Signal;HPM_P1;HPM_P2
2024/04/15 00:02:37;;;;;;;2.13;0.70;;;;;;;18.33;52.31;101326.84;11423874;26;20048;-60
2024/04/15 00:07:38;;;;;;;2.73;0.80;;;;;;;18.31;52.93;101326.34;11423029;26;20640;-60
2024/04/15 00:12:38;;;;;;;1.13;0.50;;;;;;;18.30;52.80;101322.84;11423394;26;20210;-60
2024/04/15 00:17:38;;;;;;;1.97;0.90;;;;;;;18.30;52.94;101325.53;11422464;26;20214;-60
2024/04/15 00:22:39;;;;;;;1.87;1.13;;;;;;;18.29;52.12;101315.88;11423124;26;20226;-60
2024/04/15 00:27:39;;;;;;;6.93;1.20;;;;;;;18.27;52.80;101299.25;11425631;25;20230;-60
2024/04/15 00:32:39;;;;;;;2.35;0.80;;;;;;;18.27;52.87;101277.78;11391081;26;20230;-59
2024/04/15 00:37:39;;;;;;;2.50;1.10;;;;;;;18.27;52.73;101274.28;11429319;26;19994;-60
2024/04/15 00:42:40;;;;;;;1.83;0.70;;;;;;;18.25;52.41;101269.22;11478227;25;20977;-60
2024/04/15 00:47:40;;;;;;;2.93;1.17;;;;;;;18.24;52.52;101256.88;11506546;25;20214;-60
2024/04/15 00:52:41;;;;;;;1.92;0.68;;;;;;;18.23;52.08;101239.16;11506667;25;20250;-60
2024/04/15 00:57:43;;;;;;;2.63;0.70;;;;;;;18.23;52.88;101230.28;11454037;25;19997;-59
2024/04/15 01:02:44;;;;;;;1.67;0.68;;;;;;;18.22;52.23;101232.16;11426675;26;20024;-59
2024/04/15 01:07:44;;;;;;;2.88;1.15;;;;;;;18.22;52.40;101212.56;11429106;26;20596;-60
2024/04/15 01:12:44;;;;;;;2.40;1.05;;;;;;;18.20;52.80;101207.50;11419505;26;19997;-60
2024/04/15 01:17:45;;;;;;;2.38;1.20;;;;;;;18.20;52.04;101195.94;11427598;26;20535;-60
2024/04/15 01:22:54;;;;;;;2.93;1.23;;;;;;;18.18;52.42;101190.88;11428885;26;20001;-60
2024/04/15 01:27:55;;;;;;;3.58;1.27;;;;;;;18.18;52.18;101193.56;11427410;26;20254;-60
2024/04/15 01:32:57;;;;;;;2.40;0.65;;;;;;;18.17;52.67;101197.31;11406193;25;20005;-60
2024/04/15 01:37:58;;;;;;;4.63;1.13;;;;;;;18.17;52.16;101189.28;11452818;25;19993;-60
2024/04/15 01:42:58;;;;;;;2.33;0.80;;;;;;;18.16;52.40;101184.19;11428717;25;20001;-60
2024/04/15 01:47:59;;;;;;;4.03;1.17;;;;;;;18.15;52.28;101182.59;11378067;26;20234;-60
2024/04/15 01:52:59;;;;;;;2.58;0.80;;;;;;;18.14;52.19;101170.25;11381756;26;20921;-60
2024/04/15 01:57:59;;;;;;;1.77;1.10;;;;;;;18.13;52.17;101174.03;11426113;26;20574;-60
2024/04/15 02:03:00;;;;;;;3.00;1.17;;;;;;;18.12;52.31;101162.50;11433114;25;20009;-59
2024/04/15 02:08:01;;;;;;;1.33;0.73;;;;;;;18.11;52.46;101161.69;11426357;26;20263;-60
2024/04/15 02:13:01;;;;;;;2.42;0.98;;;;;;;18.10;52.26;101137.78;11416750;26;20215;-60
2024/04/15 02:18:02;;;;;;;1.83;0.88;;;;;;;18.10;52.73;101125.16;11426083;26;20045;-60
2024/04/15 02:23:02;;;;;;;2.35;0.50;;;;;;;18.08;52.55;101118.50;11427531;26;20808;-60
2024/04/15 02:28:03;;;;;;;1.80;0.70;;;;;;;18.08;52.31;101110.44;11425873;25;19993;-60
2024/04/15 02:33:04;;;;;;;2.25;1.02;;;;;;;18.07;52.17;101104.28;11423442;25;19997;-59
2024/04/15 02:38:04;;;;;;;2.58;1.10;;;;;;;18.06;52.41;101100.00;11401075;26;20348;-60
2024/04/15 02:43:04;;;;;;;1.15;0.85;;;;;;;18.05;52.11;101095.72;11425883;26;19998;-60
2024/04/15 02:48:05;;;;;;;3.33;1.20;;;;;;;18.05;52.34;101094.91;11421588;26;19990;-60
2024/04/15 02:53:05;;;;;;;2.80;0.68;;;;;;;18.02;52.61;101087.44;11425877;26;20033;-60
2024/04/15 02:58:06;;;;;;;2.85;1.33;;;;;;;18.02;52.95;101087.44;11418049;26;20009;-60
2024/04/15 03:03:06;;;;;;;2.03;0.73;;;;;;;18.01;52.51;101075.91;11400458;25;20077;-60
2024/04/15 03:08:06;;;;;;;2.80;0.90;;;;;;;18.01;52.29;101078.59;11425471;25;20004;-60
2024/04/15 03:13:07;;;;;;;2.13;0.65;;;;;;;18.00;52.95;101076.19;11423135;26;19990;-59
2024/04/15 03:18:07;;;;;;;2.42;1.02;;;;;;;17.99;52.49;101067.31;11422165;26;20008;-57
2024/04/15 03:23:08;;;;;;;3.37;1.47;;;;;;;17.98;52.65;101052.31;11336282;26;20010;-60
2024/04/15 03:28:09;;;;;;;2.28;1.00;;;;;;;17.98;52.56;101054.19;11415130;26;20214;-60
2024/04/15 03:33:09;;;;;;;2.90;1.03;;;;;;;17.96;52.57;101035.69;11420093;25;19993;-60
2024/04/15 03:38:09;;;;;;;3.63;1.13;;;;;;;17.95;52.23;101015.31;11392024;26;20226;-60
2024/04/15 03:43:09;;;;;;;4.23;0.80;;;;;;;17.96;53.20;101010.75;11389460;25;20328;-59
2024/04/15 03:48:10;;;;;;;2.30;1.23;;;;;;;17.95;53.12;101015.31;11390040;25;20226;-60
2024/04/15 03:53:10;;;;;;;2.57;0.97;;;;;;;17.94;53.14;100994.94;11387243;26;20730;-61
2024/04/15 03:58:16;;;;;;;4.88;2.35;;;;;;;17.93;53.42;100985.28;11394352;26;20210;-60
2024/04/15 04:03:16;;;;;;;4.07;1.13;;;;;;;17.93;53.30;100979.13;11447213;25;20075;-60
2024/04/15 04:08:16;;;;;;;3.83;1.40;;;;;;;17.92;53.40;100964.91;11500998;25;19996;-58
2024/04/15 04:13:17;;;;;;;5.30;1.07;;;;;;;17.93;53.42;100949.63;11401065;25;20345;-59
2024/04/15 04:18:17;;;;;;;4.60;1.03;;;;;;;17.91;53.40;100955.28;11420267;26;20286;-59
2024/04/15 04:23:17;;;;;;;2.10;0.97;;;;;;;17.91;53.14;100957.16;11419260;26;20222;-59
2024/04/15 04:28:18;;;;;;;4.68;1.15;;;;;;;17.90;53.19;100944.84;11406219;25;20270;-59
2024/04/15 04:33:18;;;;;;;1.70;0.60;;;;;;;17.89;52.92;100929.81;11395597;26;20449;-59
2024/04/15 04:38:18;;;;;;;3.05;1.02;;;;;;;17.88;52.64;100931.72;11420539;26;20081;-59
2024/04/15 04:43:19;;;;;;;4.03;1.10;;;;;;;17.87;52.44;100938.13;11420729;26;19998;-59
2024/04/15 04:48:22;;;;;;;4.00;1.50;;;;;;;17.86;52.56;100928.47;11431590;25;20213;-59
2024/04/15 04:53:22;;;;;;;4.35;1.33;;;;;;;17.85;52.90;100910.00;11447323;25;20680;-60
2024/04/15 04:58:23;;;;;;;3.10;1.13;;;;;;;17.85;53.34;100918.84;11434972;25;20056;-60
2024/04/15 05:03:23;;;;;;;2.33;0.93;;;;;;;17.83;52.56;100908.41;11463664;25;19993;-59
2024/04/15 05:08:23;;;;;;;3.77;1.73;;;;;;;17.82;53.29;100906.00;11454200;25;20221;-61
2024/04/15 05:13:24;;;;;;;5.07;1.70;;;;;;;17.80;52.47;100895.56;11466968;25;20257;-60
2024/04/15 05:18:24;;;;;;;5.28;1.60;;;;;;;17.87;53.43;100891.72;11507738;25;20214;-61
2024/04/15 05:23:28;;;;;;;10.07;2.13;;;;;;;17.90;54.31;100885.81;11505635;25;20007;-61
2024/04/15 05:28:28;;;;;;;8.15;2.13;;;;;;;17.89;54.23;100886.91;11505930;25;20229;-60
2024/04/15 05:33:28;;;;;;;9.95;2.33;;;;;;;17.84;53.30;100887.75;11471046;25;20410;-61
2024/04/15 05:38:31;;;;;;;5.97;1.77;;;;;;;17.83;53.48;100876.22;11423401;26;20525;-60
2024/04/15 05:43:32;;;;;;;8.82;2.63;;;;;;;17.82;53.64;100868.47;11426991;26;20008;-60
2024/04/15 05:48:32;;;;;;;11.27;2.50;;;;;;;17.83;53.77;100862.81;11427312;26;20012;-59
2024/04/15 05:53:32;;;;;;;11.97;2.67;;;;;;;17.81;54.81;100864.19;11429837;25;20214;-60
2024/04/15 05:58:33;;;;;;;9.90;2.83;;;;;;;17.79;53.77;100858.31;11472158;25;20248;-60
2024/04/15 06:03:33;;;;;;;20.07;4.50;;;;;;;17.77;54.33;100857.81;11503456;25;20213;-59
2024/04/15 06:08:33;;;;;;;17.47;3.80;;;;;;;17.76;54.08;100851.63;11504199;25;20325;-58
2024/04/15 06:13:34;;;;;;;16.10;3.70;;;;;;;17.75;54.67;100847.34;11442925;25;20210;-59
2024/04/15 06:18:34;;;;;;;8.33;2.40;;;;;;;17.75;54.42;100841.16;11426646;26;20303;-60
2024/04/15 06:23:34;;;;;;;13.00;3.13;;;;;;;17.74;53.75;100834.22;11421259;26;20350;-58
2024/04/15 06:28:35;;;;;;;11.07;3.17;;;;;;;17.73;53.74;100824.56;11427454;26;20348;-59
2024/04/15 06:33:35;;;;;;;15.40;2.80;;;;;;;17.72;53.95;100825.66;11417766;26;20713;-58
2024/04/15 06:38:35;;;;;;;16.17;3.63;;;;;;;17.71;53.31;100811.47;11425461;26;19998;-58
2024/04/15 06:43:36;;;;;;;10.68;2.72;;;;;;;17.70;53.88;100798.34;11425042;26;20279;-60
2024/04/15 06:48:36;;;;;;;9.05;2.95;;;;;;;17.68;53.40;100785.19;11425092;26;20935;-59
2024/04/15 06:53:37;;;;;;;8.10;2.28;;;;;;;17.68;54.16;100785.19;11425095;26;20478;-60
2024/04/15 06:58:37;;;;;;;9.57;3.03;;;;;;;17.67;53.87;100766.72;11392637;26;20065;-59
2024/04/15 07:03:37;;;;;;;12.07;2.57;;;;;;;17.67;53.43;100759.47;11424408;26;20008;-59
2024/04/15 07:08:38;;;;;;;9.60;2.40;;;;;;;17.66;53.38;100751.72;11424468;26;20293;-59
2024/04/15 07:13:39;;;;;;;6.40;2.50;;;;;;;17.66;53.42;100738.31;11423956;26;20222;-60
2024/04/15 07:18:39;;;;;;;4.63;1.60;;;;;;;17.64;53.68;100740.44;11424772;26;20008;-59
2024/04/15 07:23:39;;;;;;;5.77;1.73;;;;;;;17.65;53.65;100729.47;11423451;26;20253;-59
2024/04/15 07:28:40;;;;;;;10.50;2.37;;;;;;;17.64;53.56;100714.47;11423749;26;20214;-60
2024/04/15 07:33:40;;;;;;;3.75;1.52;;;;;;;17.64;54.04;100705.59;11417762;26;20804;-60
2024/04/15 07:38:40;;;;;;;6.93;1.90;;;;;;;17.62;54.44;100703.22;11413545;26;20009;-60
2024/04/15 07:43:41;;;;;;;5.27;2.20;;;;;;;17.62;53.96;100680.97;11422784;26;20301;-60
2024/04/15 07:48:41;;;;;;;2.88;1.38;;;;;;;17.61;54.06;100671.31;11423494;25;20266;-58
2024/04/15 07:53:42;;;;;;;7.53;1.88;;;;;;;17.61;53.80;100666.75;11423850;26;20061;-59
2024/04/15 07:58:42;;;;;;;3.75;1.90;;;;;;;17.60;54.41;100642.91;11389151;26;20041;-60
2024/04/15 08:03:42;;;;;;;5.10;1.00;;;;;;;17.60;53.74;100645.59;11422700;26;20074;-59
2024/04/15 08:08:43;;;;;;;4.23;2.00;;;;;;;17.59;54.06;100630.59;11422603;26;20320;-59
2024/04/15 08:13:44;;;;;;;5.25;1.25;;;;;;;17.59;54.48;100635.97;11411034;26;20254;-58
2024/04/15 08:18:48;;;;;;;3.95;1.15;;;;;;;17.57;53.87;100616.69;11390833;26;20002;-59
2024/04/15 08:23:48;;;;;;;5.97;1.65;;;;;;;17.57;54.51;100606.78;11359152;26;20021;-60
2024/04/15 08:28:48;;;;;;;3.37;1.43;;;;;;;17.56;54.39;100597.13;11421726;26;20067;-61
2024/04/15 08:33:49;;;;;;;2.23;1.00;;;;;;;17.55;54.23;100587.50;11434349;25;20218;-61
2024/04/15 08:38:49;;;;;;;5.33;1.33;;;;;;;17.55;54.43;100563.38;11421719;26;20210;-61
2024/04/15 08:44:03;;;;;;;2.60;1.40;;;;;;;17.55;53.93;100547.28;11389446;26;20251;-61
2024/04/15 08:49:03;;;;;;;4.03;1.83;;;;;;;17.54;54.46;100526.94;11426425;26;20242;-60
2024/04/15 08:54:03;;;;;;;3.15;1.83;;;;;;;17.55;54.63;100525.84;11427958;26;20013;-60
2024/04/15 08:59:04;;;;;;;4.05;1.25;;;;;;;17.54;53.88;100516.22;11428996;26;20029;-60
2024/04/15 09:04:07;;;;;;;7.00;2.78;;;;;;;17.52;54.31;100513.84;11427841;26;19993;-60
2024/04/15 09:09:07;;;;;;;4.60;1.58;;;;;;;17.51;54.20;100493.44;11380393;26;20013;-60
2024/04/15 09:14:07;;;;;;;3.95;1.63;;;;;;;17.52;54.28;100486.19;11416013;26;20367;-60
2024/04/15 09:19:09;;;;;;;3.13;1.48;;;;;;;17.52;54.37;100464.75;11427709;25;20005;-60
2024/04/15 09:24:10;;;;;;;6.70;1.42;;;;;;;17.51;53.55;100466.63;11395265;26;20590;-61
2024/04/15 09:29:11;;;;;;;4.18;1.92;;;;;;;17.50;53.82;100443.59;11428091;26;20008;-60
2024/04/15 09:34:11;;;;;;;5.65;1.40;;;;;;;17.50;54.49;100410.66;11439843;25;20013;-60
2024/04/15 09:39:13;;;;;;;3.37;2.00;;;;;;;17.51;54.18;100415.72;11428045;26;20002;-60
2024/04/15 09:44:14;;;;;;;3.17;1.25;;;;;;;17.50;54.51;100391.88;11370610;26;20849;-59
2024/04/15 09:49:15;;;;;;;3.20;1.38;;;;;;;17.49;54.58;100379.56;11372833;26;20008;-59
2024/04/15 09:54:17;;;;;;;4.30;1.98;;;;;;;17.50;54.33;100365.06;11374046;26;19998;-60
2024/04/15 09:59:19;;;;;;;3.58;1.50;;;;;;;17.49;54.45;100350.09;11377094;26;19997;-60
2024/04/15 10:04:21;;;;;;;3.03;1.70;;;;;;;17.47;54.57;100334.31;11380264;25;20039;-61
2024/04/15 10:09:23;;;;;;;5.72;1.90;;;;;;;17.47;54.63;100318.22;11382034;26;20072;-61
2024/04/15 10:14:24;;;;;;;3.33;1.20;;;;;;;17.48;54.06;100298.38;11383602;26;20325;-61
2024/04/15 10:19:27;;;;;;;3.28;1.85;;;;;;;17.50;57.71;100285.47;11426847;26;19997;-61
2024/04/15 10:24:28;;;;;;;4.45;2.00;;;;;;;17.56;58.27;100282.69;11425501;26;20013;-59
2024/04/15 10:29:29;;;;;;;3.67;1.60;;;;;;;17.58;57.08;100243.75;11425578;26;20037;-60
2024/04/15 10:34:29;;;;;;;2.30;1.40;;;;;;;17.62;56.52;100230.53;11406743;25;20445;-60
2024/04/15 10:39:30;;;;;;;4.37;1.77;;;;;;;17.61;56.64;100212.88;11426035;25;19993;-60
2024/04/15 10:44:30;;;;;;;3.95;1.65;;;;;;;17.60;56.40;100209.41;11425248;26;20214;-61
2024/04/15 10:49:31;;;;;;;4.90;1.30;;;;;;;17.56;56.12;100189.66;11425773;26;20069;-61
2024/04/15 10:54:32;;;;;;;4.18;1.35;;;;;;;17.55;55.86;100174.69;11424981;25;20729;-60
2024/04/15 10:59:32;;;;;;;3.08;1.40;;;;;;;17.54;55.83;100167.72;11380310;26;20009;-61
2024/04/15 11:04:32;;;;;;;2.38;1.55;;;;;;;17.52;55.58;100151.13;11381213;25;20005;-58
2024/04/15 11:09:34;;;;;;;3.92;1.42;;;;;;;17.51;55.49;100128.09;11423749;25;19998;-60
2024/04/15 11:14:34;;;;;;;2.10;1.10;;;;;;;17.50;55.58;100105.88;11380944;26;19994;-60
2024/04/15 11:19:35;;;;;;;3.35;1.42;;;;;;;17.47;55.77;100090.41;11424240;25;20001;-59
2024/04/15 11:24:36;;;;;;;1.88;1.10;;;;;;;17.47;55.87;100105.69;11424970;26;20027;-61
2024/04/15 11:29:36;;;;;;;2.45;1.30;;;;;;;17.46;55.04;100088.81;11409759;26;20529;-59
2024/04/15 11:34:37;;;;;;;5.25;1.88;;;;;;;17.49;55.58;100080.16;11410791;25;20102;-59
2024/04/15 11:39:39;;;;;;;2.50;1.17;;;;;;;17.54;55.56;100052.47;11410145;26;19997;-56
2024/04/15 11:44:40;;;;;;;5.10;1.25;;;;;;;17.58;54.65;100041.91;11387451;26;20008;-59
2024/04/15 11:49:41;;;;;;;6.93;1.70;;;;;;;17.65;55.14;100045.78;11422443;25;20439;-60
2024/04/15 11:54:41;;;;;;;5.78;1.27;;;;;;;17.79;55.48;100026.94;11390919;26;19993;-58
2024/04/15 11:59:41;;;;;;;8.90;2.00;;;;;;;17.79;55.16;100010.88;11411850;25;20432;-60
2024/04/15 12:04:48;;;;;;;8.75;1.80;;;;;;;17.86;55.17;99975.56;11391161;26;20226;-59
2024/04/15 12:09:50;;;;;;;8.85;2.45;;;;;;;17.86;54.60;99954.88;11403452;25;20321;-59
2024/04/15 12:14:51;;;;;;;9.60;2.38;;;;;;;17.96;55.26;99929.69;11402244;26;19997;-62
2024/04/15 12:19:51;;;;;;;17.63;2.80;;;;;;;18.14;55.40;99917.13;11382325;25;19998;-60
2024/04/15 12:24:51;;;;;;;10.37;2.93;;;;;;;18.14;56.58;99898.34;11392840;26;20328;-60
2024/04/15 12:29:52;;;;;;;16.43;3.37;;;;;;;18.08;56.64;99874.34;11420318;25;20222;-61
2024/04/15 12:34:52;;;;;;;19.15;3.55;;;;;;;18.16;56.25;99875.47;11428711;26;20234;-60
2024/04/15 12:39:52;;;;;;;9.73;2.40;;;;;;;18.15;55.89;99838.22;11389399;25;20004;-60
2024/04/15 12:44:52;;;;;;;16.70;2.50;;;;;;;18.18;56.12;99826.88;11423046;26;20210;-61
2024/04/15 12:49:54;;;;;;;25.30;3.03;;;;;;;18.15;56.38;99800.66;11419127;25;20222;-61
2024/04/15 12:54:54;;;;;;;32.22;5.40;;;;;;;18.17;56.02;99795.78;11433121;25;20221;-62
2024/04/15 12:59:55;;;;;;;17.30;3.63;;;;;;;18.20;56.02;99750.31;11485674;25;19993;-63
2024/04/15 13:04:55;;;;;;;17.42;3.22;;;;;;;18.09;56.83;99765.94;11427390;26;20218;-61
2024/04/15 13:09:56;;;;;;;12.57;2.97;;;;;;;18.13;56.92;99747.31;11401610;25;19990;-61
2024/04/15 13:14:56;;;;;;;22.90;4.80;;;;;;;18.03;57.23;99742.28;11421254;26;20261;-62
2024/04/15 13:19:56;;;;;;;15.87;3.40;;;;;;;17.97;57.28;99905.22;11416195;25;20219;-64
2024/04/15 13:24:57;;;;;;;20.43;3.57;;;;;;;18.02;56.54;99889.00;11398388;26;20215;-63
2024/04/15 13:29:57;;;;;;;24.30;3.90;;;;;;;18.03;57.06;99887.91;11407572;25;20080;-63
2024/04/15 13:34:59;;;;;;;20.10;3.40;;;;;;;17.97;56.26;99881.09;11417575;25;20215;-64
2024/04/15 13:39:59;;;;;;;17.98;2.67;;;;;;;17.88;57.12;99860.72;11425427;25;20005;-62
2024/04/15 13:45:00;;;;;;;17.58;3.25;;;;;;;17.90;56.70;99863.91;11395988;26;20579;-64
2024/04/15 13:50:00;;;;;;;22.53;3.63;;;;;;;18.00;56.96;99868.97;11408315;25;19995;-64
2024/04/15 13:55:03;;;;;;;14.77;3.03;;;;;;;18.01;56.36;99889.34;11424369;26;20265;-62
2024/04/15 14:00:05;;;;;;;27.70;4.43;;;;;;;17.85;56.91;99917.66;11384729;26;20002;-63
2024/04/15 14:05:09;;;;;;;13.35;2.83;;;;;;;17.77;57.01;99901.25;11352176;26;19997;-62
2024/04/15 14:10:09;;;;;;;11.55;3.00;;;;;;;17.79;57.74;99845.41;11380619;25;20006;-64
2024/04/15 14:15:09;;;;;;;16.38;3.88;;;;;;;17.86;57.05;99814.66;11372899;26;20451;-62
2024/04/15 14:20:10;;;;;;;15.40;4.07;;;;;;;17.93;57.02;99829.19;11382661;25;19994;-63
2024/04/15 14:25:10;;;;;;;10.27;2.88;;;;;;;17.82;57.32;99873.47;11352566;26;20230;-66
2024/04/15 14:30:11;;;;;;;13.57;2.87;;;;;;;17.73;56.83;99854.69;11351928;25;20011;-61
2024/04/15 14:35:11;;;;;;;8.82;2.63;;;;;;;17.68;56.30;99843.28;11357442;26;19990;-62
2024/04/15 14:40:11;;;;;;;81.23;44.50;;;;;;;17.70;59.73;99851.84;11362265;25;20503;-62
2024/04/15 14:45:12;;;;;;;28.10;12.27;;;;;;;17.69;56.99;99836.84;11368768;26;20234;-62
2024/04/15 14:50:12;;;;;;;12.80;6.32;;;;;;;17.67;56.15;99841.72;11385587;25;19990;-62
2024/04/15 14:55:13;;;;;;;22.90;7.10;;;;;;;17.95;59.93;99863.75;11384971;26;20630;-62
2024/04/15 15:00:15;;;;;;;18.08;3.83;;;;;;;18.30;59.64;99870.75;11386817;25;20002;-63
2024/04/15 15:05:15;;;;;;;23.25;3.75;;;;;;;18.26;59.01;99864.44;11405826;26;20038;-61
2024/04/15 15:10:17;;;;;;;26.70;4.28;;;;;;;18.26;58.35;99842.19;11422060;25;20008;-62
2024/04/15 15:15:17;;;;;;;22.17;4.38;;;;;;;18.22;58.47;99844.69;11436558;25;19998;-65
2024/04/15 15:20:18;;;;;;;32.97;3.70;;;;;;;18.11;57.80;99846.09;11387960;25;20009;-63
2024/04/15 15:25:18;;;;;;;27.40;3.45;;;;;;;18.07;57.08;99856.66;11343334;25;20005;-63
2024/04/15 15:30:21;;;;;;;16.15;3.65;;;;;;;18.09;57.71;99869.75;11365989;25;20636;-62
2024/04/15 15:35:21;;;;;;;13.13;3.28;;;;;;;18.24;57.77;99860.50;11412683;26;19998;-63
2024/04/15 15:40:22;;;;;;;14.15;3.17;;;;;;;18.19;58.61;99852.59;11375690;25;20037;-64
2024/04/15 15:45:23;;;;;;;24.77;3.47;;;;;;;18.10;58.65;99861.41;11407988;26;19997;-64
2024/04/15 15:50:23;;;;;;;30.17;4.13;;;;;;;18.16;58.09;99863.94;11414650;26;20322;-61
2024/04/15 15:55:24;;;;;;;23.05;3.67;;;;;;;18.11;58.36;99880.97;11419501;26;20762;-61
2024/04/15 16:00:26;;;;;;;20.20;2.10;;;;;;;18.16;57.66;99872.78;11413337;26;19998;-62
2024/04/15 16:05:26;;;;;;;18.50;3.20;;;;;;;18.13;57.45;99881.47;11376458;26;20074;-60
2024/04/15 16:10:27;;;;;;;11.35;3.00;;;;;;;18.13;58.37;99899.47;11417502;26;20061;-61
2024/04/15 16:15:27;;;;;;;12.52;2.20;;;;;;;18.10;58.22;99898.16;11366105;26;20001;-61
2024/04/15 16:20:29;;;;;;;6.50;1.60;;;;;;;17.99;58.31;99905.72;11362780;26;19993;-61
2024/04/15 16:25:29;;;;;;;14.18;2.42;;;;;;;17.91;58.79;99906.50;11368373;26;20010;-63
2024/04/15 16:30:30;;;;;;;10.20;2.22;;;;;;;17.83;58.73;99942.88;11404912;26;20456;-62
2024/04/15 16:35:31;;;;;;;11.10;1.83;;;;;;;17.81;58.13;99947.78;11369038;26;20551;-61
2024/04/15 16:40:31;;;;;;;11.90;1.88;;;;;;;17.88;57.99;99951.88;11394358;25;20263;-59
2024/04/15 16:45:31;;;;;;;12.13;2.27;;;;;;;17.91;58.56;99944.03;11413138;26;20013;-59
2024/04/15 16:50:33;;;;;;;14.77;2.83;;;;;;;18.05;58.35;99936.66;11331413;25;20224;-60
2024/04/15 16:55:34;;;;;;;8.15;1.70;;;;;;;18.13;57.36;99928.97;11390409;26;20710;-60
2024/04/15 17:00:34;;;;;;;7.35;2.10;;;;;;;17.89;58.34;99937.41;11419377;25;19990;-59
2024/04/15 17:05:35;;;;;;;8.35;1.25;;;;;;;17.84;58.11;99932.94;11387763;26;19993;-59
2024/04/15 17:10:36;;;;;;;4.45;1.00;;;;;;;17.79;58.31;99941.16;11415410;26;20457;-60
2024/04/15 17:15:36;;;;;;;7.05;1.95;;;;;;;17.75;57.87;99948.22;11382042;26;20037;-58
2024/04/15 17:20:37;;;;;;;6.07;1.20;;;;;;;17.74;58.23;99954.66;11427375;25;20001;-59
2024/04/15 17:25:38;;;;;;;4.65;1.15;;;;;;;17.69;57.53;99976.25;11390944;26;19989;-60
2024/04/15 17:30:38;;;;;;;9.93;1.38;;;;;;;17.64;57.19;99955.72;11426721;26;19990;-60
2024/04/15 17:35:39;;;;;;;6.80;1.60;;;;;;;17.64;57.81;99958.41;11437657;25;20433;-58
2024/04/15 17:40:39;;;;;;;6.03;1.30;;;;;;;17.62;56.75;99973.19;11427118;26;20001;-59
2024/04/15 17:45:39;;;;;;;8.35;1.30;;;;;;;17.64;57.18;99969.13;11426806;26;19994;-59
2024/04/15 17:50:40;;;;;;;4.60;1.17;;;;;;;17.68;57.13;99972.75;11426721;25;19989;-60
2024/04/15 17:55:40;;;;;;;3.13;1.17;;;;;;;17.72;56.44;99967.59;11426310;26;20001;-59
2024/04/15 18:00:40;;;;;;;3.38;0.85;;;;;;;17.78;56.59;99961.81;11425242;26;20389;-59
2024/04/15 18:05:42;;;;;;;4.05;0.82;;;;;;;17.75;56.79;99966.97;11426957;26;20008;-60
2024/04/15 18:10:43;;;;;;;4.60;1.23;;;;;;;17.92;56.92;99964.41;11427729;26;19993;-62
2024/04/15 18:15:45;;;;;;;8.05;1.83;;;;;;;17.93;56.62;99967.88;11427461;26;20932;-62
2024/04/15 18:20:45;;;;;;;6.55;1.13;;;;;;;17.88;56.10;99984.91;11385289;26;19989;-58
2024/04/15 18:25:45;;;;;;;3.80;1.10;;;;;;;17.82;56.15;99994.94;11408529;25;19992;-58
2024/04/15 18:30:47;;;;;;;2.15;0.60;;;;;;;17.76;56.39;100001.56;11427999;25;20346;-58
2024/04/15 18:35:48;;;;;;;7.07;1.10;;;;;;;17.78;56.33;100006.59;11384318;26;20030;-57
2024/04/15 18:40:48;;;;;;;4.38;0.90;;;;;;;17.68;56.55;100012.97;11422833;25;20009;-58
2024/04/15 18:45:49;;;;;;;6.93;1.35;;;;;;;17.76;56.63;100016.84;11424870;26;20018;-57
2024/04/15 18:50:49;;;;;;;5.30;0.93;;;;;;;17.80;56.23;100020.50;11389652;26;19997;-58
2024/04/15 18:55:50;;;;;;;4.20;0.75;;;;;;;17.82;56.04;100018.28;11424936;26;19993;-58
2024/04/15 19:00:50;;;;;;;5.43;1.05;;;;;;;17.79;56.33;100018.91;11423651;26;19993;-58
2024/04/15 19:05:51;;;;;;;4.50;1.00;;;;;;;17.80;56.08;100015.91;11424048;26;20122;-58
2024/04/15 19:10:51;;;;;;;4.45;1.08;;;;;;;17.81;56.32;100016.72;11391457;26;20009;-58
2024/04/15 19:15:51;;;;;;;4.25;0.98;;;;;;;17.68;56.88;100055.88;11420710;26;20012;-58
2024/04/15 19:20:52;;;;;;;6.30;1.23;;;;;;;17.66;57.05;100071.47;11421931;26;19997;-59
2024/04/15 19:25:54;;;;;;;5.65;1.02;;;;;;;17.64;56.88;100022.75;11422877;25;19998;-58
2024/04/15 19:30:54;;;;;;;1.60;0.70;;;;;;;17.60;56.35;100050.44;11419740;25;20012;-59
2024/04/15 19:35:55;;;;;;;2.90;0.98;;;;;;;17.55;56.92;100037.97;11424147;25;20004;-57
2024/04/15 19:40:56;;;;;;;3.15;0.80;;;;;;;17.51;56.90;100048.47;11403419;26;20009;-58
2024/04/15 19:45:57;;;;;;;3.78;0.75;;;;;;;17.50;56.52;100071.03;11375977;26;19994;-57
2024/04/15 19:50:57;;;;;;;2.83;0.82;;;;;;;17.46;56.70;100071.94;11356965;26;20340;-58
2024/04/15 19:55:57;;;;;;;3.15;0.50;;;;;;;17.44;55.86;100087.53;11420430;26;20483;-57
2024/04/15 20:00:59;;;;;;;1.52;0.70;;;;;;;17.42;55.92;100101.25;11421572;26;20345;-58
2024/04/15 20:05:59;;;;;;;2.47;0.60;;;;;;;17.38;56.30;100118.22;11420151;26;20060;-57
2024/04/15 20:11:00;;;;;;;2.95;0.68;;;;;;;17.36;55.68;100090.94;11420938;26;20389;-57
2024/04/15 20:16:00;;;;;;;1.23;0.43;;;;;;;17.35;56.20;100095.50;11419898;26;19989;-57
2024/04/15 20:21:01;;;;;;;1.00;0.57;;;;;;;17.33;56.25;100097.69;11382720;26;19997;-58
2024/04/15 20:26:03;;;;;;;1.83;0.77;;;;;;;17.32;56.02;100076.56;11419494;26;19993;-57
2024/04/15 20:31:04;;;;;;;2.38;0.65;;;;;;;17.32;55.98;100082.72;11426492;25;20394;-58
2024/04/15 20:36:06;;;;;;;2.47;0.40;;;;;;;17.31;55.86;100077.66;11423485;25;19989;-57
2024/04/15 20:41:06;;;;;;;1.90;0.63;;;;;;;17.31;55.76;100064.25;11367069;26;20034;-56
2024/04/15 20:46:07;;;;;;;1.88;0.50;;;;;;;17.31;55.49;100064.25;11426509;26;20507;-58
2024/04/15 20:51:08;;;;;;;2.03;0.40;;;;;;;17.29;55.51;100045.03;11379906;26;20343;-58
2024/04/15 20:56:08;;;;;;;0.75;0.43;;;;;;;17.29;54.88;100015.56;11426530;26;19998;-57
2024/04/15 21:01:09;;;;;;;1.45;0.40;;;;;;;17.27;54.56;100017.72;11383295;26;20008;-57
2024/04/15 21:06:09;;;;;;;1.10;0.35;;;;;;;17.33;54.41;100014.63;11426038;25;20070;-58
2024/04/15 21:11:09;;;;;;;1.58;0.60;;;;;;;17.36;54.74;100016.69;11387444;26;20103;-57
2024/04/15 21:16:10;;;;;;;0.82;0.40;;;;;;;17.35;54.36;100022.34;11426038;26;20011;-57
2024/04/15 21:21:10;;;;;;;2.35;0.75;;;;;;;17.33;54.57;100013.84;11426835;26;20013;-58
2024/04/15 21:26:11;;;;;;;1.83;0.50;;;;;;;17.31;54.37;100016.81;11424565;26;20022;-58
2024/04/15 21:31:11;;;;;;;1.70;0.45;;;;;;;17.31;54.03;100013.34;11433968;25;20421;-58
2024/04/15 21:36:11;;;;;;;2.85;0.40;;;;;;;17.33;54.16;100006.59;11373307;26;20034;-57
2024/04/15 21:41:12;;;;;;;2.72;0.52;;;;;;;17.32;54.39;99994.28;11425988;26;19990;-57
2024/04/15 21:46:12;;;;;;;3.08;0.60;;;;;;;17.30;54.12;99988.44;11425114;26;19993;-58
2024/04/15 21:51:12;;;;;;;1.40;0.30;;;;;;;17.27;53.90;99986.34;11425509;25;20134;-57
2024/04/15 21:56:13;;;;;;;0.75;0.43;;;;;;;17.25;54.08;99999.25;11424171;25;20088;-58
2024/04/15 22:01:13;;;;;;;1.25;0.38;;;;;;;17.23;54.12;100049.69;11425429;25;20337;-58
2024/04/15 22:06:14;;;;;;;4.80;0.50;;;;;;;17.29;53.18;100034.31;11426821;26;20005;-57
2024/04/15 22:11:14;;;;;;;1.05;0.30;;;;;;;17.29;53.05;100004.84;11428247;26;20070;-59
2024/04/15 22:16:14;;;;;;;2.35;0.40;;;;;;;17.30;53.21;100042.03;11426324;26;19994;-58
2024/04/15 22:21:15;;;;;;;2.92;0.43;;;;;;;17.30;53.42;100025.16;11428469;26;20009;-58
2024/04/15 22:26:15;;;;;;;2.35;0.60;;;;;;;17.29;52.65;100005.63;11426171;26;20004;-58
2024/04/15 22:31:15;;;;;;;2.20;0.50;;;;;;;17.29;52.63;100010.19;11435677;25;19989;-58
2024/04/15 22:36:16;;;;;;;2.35;0.88;;;;;;;17.27;52.99;99989.03;11426995;25;20210;-58
2024/04/15 22:41:16;;;;;;;4.18;0.70;;;;;;;17.24;53.10;99984.28;11427101;26;20007;-59
2024/04/15 22:46:16;;;;;;;1.35;0.50;;;;;;;17.22;53.09;99973.88;11426492;26;20001;-57
2024/04/15 22:51:17;;;;;;;4.18;0.63;;;;;;;17.24;52.74;99968.22;11380393;26;20009;-59
2024/04/15 22:56:17;;;;;;;1.75;0.73;;;;;;;17.24;52.91;99968.22;11425417;26;20005;-58
2024/04/15 23:01:18;;;;;;;2.13;0.73;;;;;;;17.27;52.91;99964.91;11426674;26;20004;-59